Time;durP1;ratioP1;P1;durP2;ratioP2;P2;SDS_P1;SDS_P2;PMS_P1;PMS_P2;Temp;Humidity;BMP_temperature;BMP_pressure;BME280_temperature;BME280_humidity;BME280_pressure;Samples;Min_cycle;Max_cycle;Signal;HPM_P1;HPM_P2
2022/07/20 00:00:38;;;;;;;;;29.50;29.50;;;;;-146.44;100.00;58906.56;5076643;27;45568;-66
2022/07/20 00:03:11;;;;;;;;;26.00;26.00;;;;;-146.44;100.00;58906.56;5075219;28;45482;-65
2022/07/20 00:05:38;;;;;;;;;18.25;18.25;;;;;-146.44;100.00;58906.56;5076392;27;45444;-66
2022/07/20 00:08:04;;;;;;;;;25.50;25.50;;;;;-146.44;100.00;58906.56;5075906;28;46277;-66
2022/07/20 00:13:15;;;;;;;;;24.50;24.50;;;;;-146.44;100.00;58906.56;5076341;28;45456;-65
2022/07/20 00:15:41;;;;;;;;;27.00;25.50;;;;;-146.44;100.00;58906.56;5074415;28;45629;-65
2022/07/20 00:18:06;;;;;;;;;27.75;26.00;;;;;-146.44;100.00;58906.56;5075829;27;45569;-65
2022/07/20 00:20:32;;;;;;;;;25.50;24.00;;;;;-146.44;100.00;58906.56;5075895;27;45521;-66
2022/07/20 00:22:58;;;;;;;;;30.00;28.00;;;;;-146.44;100.00;58906.56;5076076;27;45374;-65
2022/07/20 00:25:24;;;;;;;;;26.00;26.00;;;;;-146.44;100.00;58906.56;5076048;27;45623;-65
2022/07/20 00:27:50;;;;;;;;;27.75;26.50;;;;;-146.44;100.00;58906.56;5075826;28;45536;-65
2022/07/20 00:30:15;;;;;;;;;28.25;24.50;;;;;-146.44;100.00;58906.56;5075884;28;45414;-66
2022/07/20 00:32:42;;;;;;;;;26.25;26.00;;;;;-146.44;100.00;58906.56;5074579;28;45411;-65
2022/07/20 00:35:10;;;;;;;;;26.00;25.00;;;;;-146.44;100.00;58906.56;5074588;27;45456;-65
2022/07/20 00:37:36;;;;;;;;;24.50;24.50;;;;;-146.44;100.00;58906.56;5075680;27;47078;-66
2022/07/20 00:40:04;;;;;;;;;25.50;24.75;;;;;-146.44;100.00;58906.56;5075673;28;45410;-66
2022/07/20 00:42:29;;;;;;;;;27.00;24.25;;;;;-146.44;100.00;58906.56;5075826;28;45383;-65
2022/07/20 00:44:55;;;;;;;;;24.25;24.25;;;;;-146.44;100.00;58906.56;5075629;27;45369;-66
2022/07/20 00:47:20;;;;;;;;;23.75;23.75;;;;;-146.44;100.00;58906.56;5075629;27;45366;-65
2022/07/20 00:49:46;;;;;;;;;26.50;25.50;;;;;-146.44;100.00;58906.56;5075604;27;45435;-66
2022/07/20 00:52:11;;;;;;;;;23.50;21.75;;;;;-146.44;100.00;58906.56;5075618;27;45369;-66
2022/07/20 00:54:39;;;;;;;;;27.75;27.50;;;;;-146.44;100.00;58906.56;5075522;28;45575;-64
2022/07/20 00:57:05;;;;;;;;;25.25;25.25;;;;;-146.44;100.00;58906.56;5075344;27;46155;-65
2022/07/20 00:59:30;;;;;;;;;26.00;25.75;;;;;-146.44;100.00;58906.56;5075199;28;45358;-66
2022/07/20 01:01:56;;;;;;;;;28.33;28.33;;;;;-146.44;100.00;58906.56;5075556;28;45458;-65
2022/07/20 01:04:22;;;;;;;;;30.00;27.50;;;;;-146.44;100.00;58906.56;5075427;27;45396;-66
2022/07/20 01:06:47;;;;;;;;;28.67;28.67;;;;;-146.44;100.00;58906.56;5075308;27;45370;-65
2022/07/20 01:09:13;;;;;;;;;24.67;24.67;;;;;-146.44;100.00;58906.56;5075231;27;45392;-65
2022/07/20 01:11:38;;;;;;;;;25.00;24.75;;;;;-146.44;100.00;58906.56;5074135;28;45413;-66
2022/07/20 01:14:07;;;;;;;;;30.33;27.00;;;;;-146.44;100.00;58906.56;5075442;27;45433;-65
2022/07/20 01:16:34;;;;;;;;;26.67;26.67;;;;;-146.44;100.00;58906.56;5075057;27;47166;-65
2022/07/20 01:18:59;;;;;;;;;29.33;27.67;;;;;-146.44;100.00;58906.56;5075283;27;45390;-65
2022/07/20 01:21:25;;;;;;;;;31.33;29.33;;;;;-146.44;100.00;58906.56;5075246;27;45519;-64
2022/07/20 01:23:50;;;;;;;;;29.33;28.33;;;;;-146.44;100.00;58906.56;5075275;28;45474;-65
2022/07/20 01:26:17;;;;;;;;;31.00;30.33;;;;;-146.44;100.00;58906.56;5075212;27;46193;-65
2022/07/20 01:28:43;;;;;;;;;34.33;32.00;;;;;-146.44;100.00;58906.56;5075175;27;45447;-66
2022/07/20 01:31:08;;;;;;;;;35.00;31.33;;;;;-146.44;100.00;58906.56;5075215;27;45339;-65
2022/07/20 01:33:33;;;;;;;;;43.00;37.33;;;;;-146.44;100.00;58906.56;5075003;27;45528;-65
2022/07/20 01:35:59;;;;;;;;;43.00;38.00;;;;;-146.44;100.00;58906.56;5073723;28;45870;-65
2022/07/20 01:38:24;;;;;;;;;45.67;39.00;;;;;-146.44;100.00;58906.56;5074989;27;45378;-65
2022/07/20 01:40:50;;;;;;;;;44.00;37.00;;;;;-146.44;100.00;58906.56;5075035;27;45319;-65
2022/07/20 01:43:15;;;;;;;;;45.67;38.00;;;;;-146.44;100.00;58906.56;5075015;27;45601;-65
2022/07/20 01:45:40;;;;;;;;;46.00;39.33;;;;;-146.44;100.00;58906.56;5076035;27;46112;-65
2022/07/20 01:48:06;;;;;;;;;49.33;41.33;;;;;-146.44;100.00;58906.56;5078446;28;45410;-64
2022/07/20 01:50:31;;;;;;;;;44.33;37.67;;;;;-146.44;100.00;58906.56;5078382;27;45497;-65
2022/07/20 01:52:57;;;;;;;;;47.00;39.67;;;;;-146.44;100.00;58906.56;5078368;27;45610;-64
2022/07/20 01:55:22;;;;;;;;;51.00;43.00;;;;;-146.44;100.00;58906.56;5077956;27;46032;-65
2022/07/20 01:57:47;;;;;;;;;50.33;43.33;;;;;-146.44;100.00;58906.56;5078256;27;45409;-65
2022/07/20 02:00:13;;;;;;;;;47.00;39.67;;;;;-146.44;100.00;58906.56;5078284;27;46671;-65
2022/07/20 02:02:40;;;;;;;;;50.33;43.00;;;;;-146.44;100.00;58906.56;5078156;28;45575;-65
2022/07/20 02:05:08;;;;;;;;;51.00;42.67;;;;;-146.44;100.00;58906.56;5078023;27;46383;-65
2022/07/20 02:07:33;;;;;;;;;54.67;44.00;;;;;-146.44;100.00;58906.56;5077987;28;45493;-65
2022/07/20 02:09:59;;;;;;;;;52.33;43.00;;;;;-146.44;100.00;58906.56;5078007;27;45400;-65
2022/07/20 02:12:24;;;;;;;;;51.00;43.67;;;;;-146.44;100.00;58906.56;5078352;27;45315;-64
2022/07/20 02:14:49;;;;;;;;;58.33;47.00;;;;;-146.44;100.00;58906.56;5077734;27;45385;-64
2022/07/20 02:17:15;;;;;;;;;53.00;44.00;;;;;-146.44;100.00;58906.56;5077902;27;45362;-65
2022/07/20 02:19:40;;;;;;;;;52.67;44.00;;;;;-146.44;100.00;58906.56;5076645;28;45401;-65
2022/07/20 02:22:06;;;;;;;;;52.00;44.00;;;;;-146.44;100.00;58906.56;5077811;27;45571;-64
2022/07/20 02:24:31;;;;;;;;;56.67;47.00;;;;;-146.44;100.00;58906.56;5077607;27;46067;-65
2022/07/20 02:26:57;;;;;;;;;56.00;46.33;;;;;-146.44;100.00;58906.56;5076443;28;45458;-66
2022/07/20 02:29:22;;;;;;;;;56.67;46.67;;;;;-146.44;100.00;58906.56;5077940;27;45469;-65
2022/07/20 02:31:47;;;;;;;;;55.67;44.67;;;;;-146.44;100.00;58906.56;5077853;27;45583;-66
2022/07/20 02:34:13;;;;;;;;;57.33;47.67;;;;;-146.44;100.00;58906.56;5077370;27;49777;-64
2022/07/20 02:36:39;;;;;;;;;58.00;47.33;;;;;-146.44;100.00;58906.56;5077580;27;45508;-66
2022/07/20 02:39:05;;;;;;;;;58.33;47.00;;;;;-146.44;100.00;58906.56;5077747;27;45433;-64
2022/07/20 02:41:30;;;;;;;;;55.67;46.67;;;;;-146.44;100.00;58906.56;5077553;27;45444;-65
2022/07/20 02:43:55;;;;;;;;;61.33;49.33;;;;;-146.44;100.00;58906.56;5077407;27;45935;-66
2022/07/20 02:46:21;;;;;;;;;49.33;42.33;;;;;-146.44;100.00;58906.56;5077396;27;45461;-66
2022/07/20 02:48:46;;;;;;;;;56.67;46.00;;;;;-146.44;100.00;58906.56;5077825;27;45421;-66
2022/07/20 02:51:11;;;;;;;;;57.33;47.00;;;;;-146.44;100.00;58906.56;5077541;27;45559;-66
2022/07/20 02:53:37;;;;;;;;;59.67;48.00;;;;;-146.44;100.00;58906.56;5077397;27;45431;-65
2022/07/20 02:56:02;;;;;;;;;60.33;49.33;;;;;-146.44;100.00;58906.56;5077062;27;45371;-65
2022/07/20 02:58:28;;;;;;;;;61.00;50.00;;;;;-146.44;100.00;58906.56;5076310;28;45381;-66
2022/07/20 03:00:53;;;;;;;;;56.33;46.33;;;;;-146.44;100.00;58906.56;5077236;27;45773;-65
2022/07/20 03:03:18;;;;;;;;;60.67;48.67;;;;;-146.44;100.00;58906.56;5075581;28;45473;-65
2022/07/20 03:05:44;;;;;;;;;55.00;46.33;;;;;-146.44;100.00;58906.56;5077208;27;45452;-65
2022/07/20 03:08:09;;;;;;;;;62.00;48.33;;;;;-146.44;100.00;58906.56;5077230;27;45402;-65
2022/07/20 03:10:35;;;;;;;;;56.33;46.67;;;;;-146.44;100.00;58906.56;5077192;27;45349;-64
2022/07/20 03:13:00;;;;;;;;;58.33;48.33;;;;;-146.44;100.00;58906.56;5077134;28;45669;-65
2022/07/20 03:15:26;;;;;;;;;57.00;48.00;;;;;-146.44;100.00;58906.56;5076591;27;45624;-65
2022/07/20 03:17:53;;;;;;;;;55.33;45.33;;;;;-146.44;100.00;58906.56;5077127;27;45428;-65
2022/07/20 03:20:22;;;;;;;;;57.67;47.33;;;;;-146.44;100.00;58906.56;5077116;27;45408;-65
2022/07/20 03:22:47;;;;;;;;;55.67;46.33;;;;;-146.44;100.00;58906.56;5076694;27;46166;-66
2022/07/20 03:25:12;;;;;;;;;57.33;48.00;;;;;-146.44;100.00;58906.56;5076808;28;45362;-65
2022/07/20 03:27:38;;;;;;;;;57.00;47.67;;;;;-146.44;100.00;58906.56;5076940;27;45319;-66
2022/07/20 03:30:05;;;;;;;;;54.33;45.00;;;;;-146.44;100.00;58906.56;5076829;28;45389;-65
2022/07/20 03:32:31;;;;;;;;;55.00;46.00;;;;;-146.44;100.00;58906.56;5076606;27;45397;-65
2022/07/20 03:34:56;;;;;;;;;56.33;47.33;;;;;-146.44;100.00;58906.56;5076487;27;45494;-66
2022/07/20 03:37:22;;;;;;;;;58.00;47.67;;;;;-146.44;100.00;58906.56;5076678;27;45453;-65
2022/07/20 03:39:48;;;;;;;;;56.00;45.00;;;;;-146.44;100.00;58906.56;5076713;28;45419;-66
2022/07/20 03:42:13;;;;;;;;;54.67;45.67;;;;;-146.44;100.00;58906.56;5076437;27;45495;-65
2022/07/20 03:44:38;;;;;;;;;56.00;44.00;;;;;-146.44;100.00;58906.56;5076447;27;45528;-65
2022/07/20 03:47:04;;;;;;;;;52.33;42.33;;;;;-146.44;100.00;58906.56;5076683;27;45414;-66
2022/07/20 03:49:29;;;;;;;;;52.33;44.00;;;;;-146.44;100.00;58906.56;5075112;28;45512;-65
2022/07/20 03:51:55;;;;;;;;;51.67;42.00;;;;;-146.44;100.00;58906.56;5076410;27;45599;-65
2022/07/20 03:54:20;;;;;;;;;47.33;40.33;;;;;-146.44;100.00;58906.56;5076614;27;45406;-66
2022/07/20 03:56:45;;;;;;;;;49.67;41.00;;;;;-146.44;100.00;58906.56;5076499;27;45447;-66
2022/07/20 03:59:11;;;;;;;;;46.00;39.00;;;;;-146.44;100.00;58906.56;5076448;27;45610;-66
2022/07/20 04:01:37;;;;;;;;;43.67;37.67;;;;;-146.44;100.00;58906.56;5074949;28;46206;-65
2022/07/20 04:04:03;;;;;;;;;45.67;38.67;;;;;-146.44;100.00;58906.56;5074720;27;45370;-66
2022/07/20 04:06:29;;;;;;;;;47.67;40.33;;;;;-146.44;100.00;58906.56;5076306;27;45370;-66
2022/07/20 04:08:55;;;;;;;;;44.00;37.67;;;;;-146.44;100.00;58906.56;5075948;27;45373;-65
2022/07/20 04:11:20;;;;;;;;;39.67;35.00;;;;;-146.44;100.00;58906.56;5076012;27;46103;-65
2022/07/20 04:13:45;;;;;;;;;38.33;33.67;;;;;-146.44;100.00;58906.56;5074782;28;45362;-64
2022/07/20 04:16:11;;;;;;;;;36.00;33.00;;;;;-146.44;100.00;58906.56;5075937;27;45431;-64
2022/07/20 04:18:36;;;;;;;;;36.67;32.67;;;;;-146.44;100.00;58906.56;5074761;28;45697;-65
2022/07/20 04:21:02;;;;;;;;;32.67;31.67;;;;;-146.44;100.00;58906.56;5075998;27;46486;-65
2022/07/20 04:23:27;;;;;;;;;33.33;30.00;;;;;-146.44;100.00;58906.56;5075983;28;45429;-64
2022/07/20 04:25:52;;;;;;;;;34.33;32.00;;;;;-146.44;100.00;58906.56;5075963;27;45469;-64
2022/07/20 04:28:18;;;;;;;;;32.00;30.00;;;;;-146.44;100.00;58906.56;5075962;27;45441;-65
2022/07/20 04:30:44;;;;;;;;;32.00;28.33;;;;;-146.44;100.00;58906.56;5075668;27;45903;-65
2022/07/20 04:33:09;;;;;;;;;29.33;27.33;;;;;-146.44;100.00;58906.56;5075672;27;45447;-65
2022/07/20 04:35:34;;;;;;;;;23.25;23.25;;;;;-146.44;100.00;58906.56;5075744;28;45370;-65
2022/07/20 04:38:00;;;;;;;;;29.00;26.67;;;;;-146.44;100.00;58906.56;5075655;27;45358;-65
2022/07/20 04:40:26;;;;;;;;;26.67;26.67;;;;;-146.44;100.00;58906.56;5075528;27;45367;-65
2022/07/20 04:42:51;;;;;;;;;24.67;24.67;;;;;-146.44;100.00;58906.56;5075469;28;45484;-65
2022/07/20 04:45:17;;;;;;;;;26.67;26.67;;;;;-146.44;100.00;58906.56;5075735;27;45428;-65
2022/07/20 04:47:42;;;;;;;;;27.67;27.67;;;;;-146.44;100.00;58906.56;5075841;27;45384;-66
2022/07/20 04:50:08;;;;;;;;;28.00;28.00;;;;;-146.44;100.00;58906.56;5075502;28;45438;-65
2022/07/20 04:52:33;;;;;;;;;33.67;32.00;;;;;-146.44;100.00;58906.56;5075373;28;45457;-66
2022/07/20 04:54:58;;;;;;;;;32.67;31.67;;;;;-146.44;100.00;58906.56;5075508;27;45296;-66
2022/07/20 04:57:24;;;;;;;;;29.67;29.00;;;;;-146.44;100.00;58906.56;5075379;28;45299;-65
2022/07/20 04:59:49;;;;;;;;;30.67;30.00;;;;;-146.44;100.00;58906.56;5075259;27;45453;-66
2022/07/20 05:02:15;;;;;;;;;31.00;30.00;;;;;-146.44;100.00;58906.56;5075547;27;45376;-65
2022/07/20 05:04:40;;;;;;;;;31.33;30.00;;;;;-146.44;100.00;58906.56;5075268;28;45445;-66
2022/07/20 05:07:06;;;;;;;;;28.00;28.00;;;;;-146.44;100.00;58906.56;5074150;28;45707;-65
2022/07/20 05:09:31;;;;;;;;;33.00;29.67;;;;;-146.44;100.00;58906.56;5075060;27;45632;-65
2022/07/20 05:11:56;;;;;;;;;30.33;28.00;;;;;-146.44;100.00;58906.56;5075128;27;45464;-64
2022/07/20 05:14:21;;;;;;;;;34.33;30.00;;;;;-146.44;100.00;58906.56;5075414;27;45362;-65
2022/07/20 05:16:47;;;;;;;;;28.00;26.33;;;;;-146.44;100.00;58906.56;5075292;27;45459;-66
2022/07/20 05:19:12;;;;;;;;;28.67;28.67;;;;;-146.44;100.00;58906.56;5073689;28;45483;-65
2022/07/20 05:21:38;;;;;;;;;27.67;27.67;;;;;-146.44;100.00;58906.56;5077741;28;45452;-65
2022/07/20 05:24:03;;;;;;;;;31.00;29.00;;;;;-146.44;100.00;58906.56;5078909;27;45461;-65
2022/07/20 05:26:29;;;;;;;;;28.33;25.67;;;;;-146.44;100.00;58906.56;5077534;28;45419;-65
2022/07/20 05:28:54;;;;;;;;;28.00;25.33;;;;;-146.44;100.00;58906.56;5078527;27;45949;-65
2022/07/20 05:31:20;;;;;;;;;26.00;26.00;;;;;-146.44;100.00;58906.56;5078379;27;45488;-65
2022/07/20 05:33:45;;;;;;;;;25.00;23.67;;;;;-146.44;100.00;58906.56;5078650;28;45412;-66
2022/07/20 05:36:10;;;;;;;;;29.00;29.00;;;;;-146.44;100.00;58906.56;5078550;27;45437;-66
2022/07/20 05:38:36;;;;;;;;;24.00;24.00;;;;;-146.44;100.00;58906.56;5078482;27;46073;-66
2022/07/20 05:41:01;;;;;;;;;23.67;23.67;;;;;-146.44;100.00;58906.56;5078394;27;45465;-65
2022/07/20 05:43:27;;;;;;;;;26.67;25.33;;;;;-146.44;100.00;58906.56;5078549;27;45441;-66
2022/07/20 05:45:53;;;;;;;;;22.25;21.75;;;;;-146.44;100.00;58906.56;5078409;27;45453;-65
2022/07/20 05:48:18;;;;;;;;;20.67;20.67;;;;;-146.44;100.00;58906.56;5078364;27;45392;-66
2022/07/20 05:50:44;;;;;;;;;23.25;22.25;;;;;-146.44;100.00;58906.56;5078282;28;45465;-66
2022/07/20 05:53:11;;;;;;;;;22.67;22.67;;;;;-146.44;100.00;58906.56;5078344;27;45484;-67
2022/07/20 05:55:37;;;;;;;;;21.67;21.67;;;;;-146.44;100.00;58906.56;5076919;28;45355;-66
2022/07/20 05:58:04;;;;;;;;;23.67;21.00;;;;;-146.44;100.00;58906.56;5077909;27;45500;-65
2022/07/20 06:00:30;;;;;;;;;25.00;23.33;;;;;-146.44;100.00;58906.56;5078192;27;45484;-66
2022/07/20 06:02:55;;;;;;;;;24.67;23.67;;;;;-146.44;100.00;58906.56;5078210;27;45469;-65
2022/07/20 06:05:21;;;;;;;;;21.00;21.00;;;;;-146.44;100.00;58906.56;5077917;27;45394;-66
2022/07/20 06:07:46;;;;;;;;;26.67;26.67;;;;;-146.44;100.00;58906.56;5077982;27;46294;-66
2022/07/20 06:10:12;;;;;;;;;30.67;28.00;;;;;-146.44;100.00;58906.56;5078020;27;45422;-66
2022/07/20 06:12:37;;;;;;;;;24.67;24.67;;;;;-146.44;100.00;58906.56;5078112;28;45411;-67
2022/07/20 06:15:04;;;;;;;;;22.00;21.25;;;;;-146.44;100.00;58906.56;5077734;27;45443;-66
2022/07/20 06:17:47;;;;;;;;;24.00;24.00;;;;;-146.44;100.00;58906.56;5077812;27;45470;-66
2022/07/20 06:20:15;;;;;;;;;25.67;24.33;;;;;-146.44;100.00;58906.56;5077866;28;45458;-66
2022/07/20 06:22:42;;;;;;;;;25.33;23.67;;;;;-146.44;100.00;58906.56;5077825;27;45465;-67
2022/07/20 06:25:09;;;;;;;;;25.33;23.33;;;;;-146.44;100.00;58906.56;5077778;27;45669;-67
2022/07/20 06:27:35;;;;;;;;;23.33;23.33;;;;;-146.44;100.00;58906.56;5077669;27;45413;-66
2022/07/20 06:30:01;;;;;;;;;23.33;21.33;;;;;-146.44;100.00;58906.56;5077724;27;45399;-66
2022/07/20 06:32:26;;;;;;;;;22.33;22.33;;;;;-146.44;100.00;58906.56;5076481;27;45412;-66
2022/07/20 06:35:10;;;;;;;;;24.33;23.33;;;;;-146.44;100.00;58906.56;5077525;27;45487;-66
2022/07/20 06:37:38;;;;;;;;;25.67;23.00;;;;;-146.44;100.00;58906.56;5077412;27;45462;-66
2022/07/20 06:40:04;;;;;;;;;21.33;21.00;;;;;-146.44;100.00;58906.56;5077292;27;45505;-66
2022/07/20 06:42:30;;;;;;;;;22.00;22.00;;;;;-146.44;100.00;58906.56;5092663;27;45308;-66
2022/07/20 06:44:55;;;;;;;;;18.67;18.67;;;;;-146.44;100.00;58906.56;5077535;27;45632;-65
2022/07/20 06:47:21;;;;;;;;;24.33;23.67;;;;;-146.44;100.00;58906.56;5077310;27;47170;-65
2022/07/20 06:49:46;;;;;;;;;23.33;23.33;;;;;-146.44;100.00;58906.56;5075845;28;45457;-66
2022/07/20 06:52:12;;;;;;;;;19.67;19.67;;;;;-146.44;100.00;58906.56;5077508;28;45442;-66
2022/07/20 06:54:37;;;;;;;;;21.67;21.67;;;;;-146.44;100.00;58906.56;5077546;27;45344;-66
2022/07/20 06:57:03;;;;;;;;;24.00;23.33;;;;;-146.44;100.00;58906.56;5077057;27;45807;-65
2022/07/20 06:59:28;;;;;;;;;20.67;20.67;;;;;-146.44;100.00;58906.56;5077275;27;45430;-65
2022/07/20 07:01:53;;;;;;;;;28.00;23.33;;;;;-146.44;100.00;58906.56;5077097;27;45480;-65
2022/07/20 07:04:19;;;;;;;;;26.00;24.00;;;;;-146.44;100.00;58906.56;5077063;27;45370;-66
2022/07/20 07:06:45;;;;;;;;;26.33;24.00;;;;;-146.44;100.00;58906.56;5076961;27;45505;-65
2022/07/20 07:09:10;;;;;;;;;23.33;22.67;;;;;-146.44;100.00;58906.56;5077010;27;45520;-66
2022/07/20 07:11:36;;;;;;;;;26.00;26.00;;;;;-146.44;100.00;58906.56;5076749;28;45425;-65
2022/07/20 07:14:03;;;;;;;;;25.67;23.67;;;;;-146.44;100.00;58906.56;5075286;28;45754;-65
2022/07/20 07:16:29;;;;;;;;;26.67;24.33;;;;;-146.44;100.00;58906.56;5076493;28;45406;-65
2022/07/20 07:18:54;;;;;;;;;27.00;26.00;;;;;-146.44;100.00;58906.56;5076824;27;45387;-64
2022/07/20 07:21:20;;;;;;;;;25.33;25.33;;;;;-146.44;100.00;58906.56;5076618;27;45453;-66
2022/07/20 07:23:49;;;;;;;;;28.00;26.33;;;;;-146.44;100.00;58906.56;5076583;27;45608;-65
2022/07/20 07:26:18;;;;;;;;;24.67;24.67;;;;;-146.44;100.00;58906.56;5076884;27;45466;-66
2022/07/20 07:28:44;;;;;;;;;27.00;27.00;;;;;-146.44;100.00;58906.56;5076817;27;45423;-65
2022/07/20 07:31:10;;;;;;;;;26.33;22.33;;;;;-146.44;100.00;58906.56;5076789;27;45447;-65
2022/07/20 07:33:35;;;;;;;;;24.00;22.67;;;;;-146.44;100.00;58906.56;5076686;27;45434;-65
2022/07/20 07:36:00;;;;;;;;;28.67;26.33;;;;;-146.44;100.00;58906.56;5076061;27;51725;-65
2022/07/20 07:38:26;;;;;;;;;23.33;22.67;;;;;-146.44;100.00;58906.56;5076664;27;45438;-65
2022/07/20 07:40:51;;;;;;;;;28.00;28.00;;;;;-146.44;100.00;58906.56;5076792;27;45370;-65
2022/07/20 07:43:16;;;;;;;;;23.33;20.67;;;;;-146.44;100.00;58906.56;5074788;28;45390;-65
2022/07/20 07:45:42;;;;;;;;;27.67;27.67;;;;;-146.44;100.00;58906.56;5076378;27;45427;-65
2022/07/20 07:48:10;;;;;;;;;26.00;25.00;;;;;-146.44;100.00;58906.56;5076295;28;45482;-66
2022/07/20 07:50:39;;;;;;;;;23.00;23.00;;;;;-146.44;100.00;58906.56;5076415;27;45358;-66
2022/07/20 07:53:07;;;;;;;;;24.67;23.33;;;;;-146.44;100.00;58906.56;5076389;27;45393;-66
2022/07/20 07:55:33;;;;;;;;;27.00;25.00;;;;;-146.44;100.00;58906.56;5076027;28;45433;-66
2022/07/20 07:57:58;;;;;;;;;35.67;30.33;;;;;-146.44;100.00;58906.56;5076252;27;45710;-65
2022/07/20 08:00:24;;;;;;;;;26.67;24.00;;;;;-146.44;100.00;58906.56;5076332;27;45389;-65
2022/07/20 08:02:49;;;;;;;;;24.00;24.00;;;;;-146.44;100.00;58906.56;5076163;28;45522;-64
2022/07/20 08:05:14;;;;;;;;;26.67;26.00;;;;;-146.44;100.00;58906.56;5075792;27;45447;-66
2022/07/20 08:07:40;;;;;;;;;23.00;23.00;;;;;-146.44;100.00;58906.56;5076074;27;45440;-66
2022/07/20 08:10:07;;;;;;;;;22.00;22.00;;;;;-146.44;100.00;58906.56;5075907;27;45505;-65
2022/07/20 08:12:33;;;;;;;;;35.67;31.33;;;;;-146.44;100.00;58906.56;5076106;27;45362;-66
2022/07/20 08:14:58;;;;;;;;;28.67;26.00;;;;;-146.44;100.00;58906.56;5075462;27;45580;-65
2022/07/20 08:17:24;;;;;;;;;32.33;31.00;;;;;-146.44;100.00;58906.56;5075608;27;45344;-65
2022/07/20 08:19:49;;;;;;;;;31.67;30.00;;;;;-146.44;100.00;58906.56;5075981;27;45366;-65
2022/07/20 08:22:15;;;;;;;;;28.00;28.00;;;;;-146.44;100.00;58906.56;5076015;28;45381;-65
2022/07/20 08:24:40;;;;;;;;;26.33;25.33;;;;;-146.44;100.00;58906.56;5075795;28;45487;-65
2022/07/20 08:27:06;;;;;;;;;32.00;31.00;;;;;-146.44;100.00;58906.56;5075647;28;47792;-66
2022/07/20 08:29:31;;;;;;;;;29.33;27.00;;;;;-146.44;100.00;58906.56;5075937;27;45343;-66
2022/07/20 08:31:56;;;;;;;;;27.67;25.00;;;;;-146.44;100.00;58906.56;5075806;27;45493;-66
2022/07/20 08:34:22;;;;;;;;;28.33;24.67;;;;;-146.44;100.00;58906.56;5075551;27;45600;-66
2022/07/20 08:36:47;;;;;;;;;28.33;27.33;;;;;-146.44;100.00;58906.56;5075494;27;45343;-65
2022/07/20 08:39:12;;;;;;;;;21.33;20.00;;;;;-146.44;100.00;58906.56;5075473;27;45344;-65
2022/07/20 08:41:39;;;;;;;;;26.67;25.67;;;;;-146.44;100.00;58906.56;5075465;27;45415;-66
2022/07/20 08:44:04;;;;;;;;;24.67;23.67;;;;;-146.44;100.00;58906.56;5075191;27;46217;-66
2022/07/20 08:46:30;;;;;;;;;25.67;25.00;;;;;-146.44;100.00;58906.56;5075336;27;45408;-65
2022/07/20 08:48:56;;;;;;;;;24.67;22.00;;;;;-146.44;100.00;58906.56;5075402;27;45397;-66
2022/07/20 08:51:21;;;;;;;;;26.33;25.33;;;;;-146.44;100.00;58906.56;5075598;27;45420;-66
2022/07/20 08:53:49;;;;;;;;;35.33;32.67;;;;;-146.44;100.00;58906.56;5075053;27;45490;-66
2022/07/20 08:56:15;;;;;;;;;36.33;33.67;;;;;-146.44;100.00;58906.56;5074306;28;45481;-66
2022/07/20 08:58:41;;;;;;;;;26.67;26.67;;;;;-146.44;100.00;58906.56;5075131;27;45432;-65
2022/07/20 09:01:12;;;;;;;;;19.33;19.33;;;;;-146.44;100.00;58906.56;5075229;27;45383;-66
2022/07/20 09:03:38;;;;;;;;;25.33;25.33;;;;;-146.44;100.00;58906.56;5075280;27;46257;-66
2022/07/20 09:06:06;;;;;;;;;25.67;25.67;;;;;-146.44;100.00;58906.56;5075078;27;45406;-65
2022/07/20 09:08:32;;;;;;;;;23.33;22.33;;;;;-146.44;100.00;58906.56;5075260;27;45398;-67
2022/07/20 09:11:01;;;;;;;;;25.33;25.33;;;;;-146.44;100.00;58906.56;5075304;27;45663;-64
2022/07/20 09:13:28;;;;;;;;;23.33;23.33;;;;;-146.44;100.00;58906.56;5073570;28;46296;-64
2022/07/20 09:15:54;;;;;;;;;25.00;23.00;;;;;-146.44;100.00;58906.56;5074729;27;45508;-65
2022/07/20 09:18:21;;;;;;;;;24.00;24.00;;;;;-146.44;100.00;58906.56;5075254;27;45394;-65
2022/07/20 09:20:49;;;;;;;;;22.33;22.33;;;;;-146.44;100.00;58906.56;5075096;27;45402;-66
2022/07/20 09:23:18;;;;;;;;;23.00;23.00;;;;;-146.44;100.00;58906.56;5074852;27;45539;-66
2022/07/20 09:26:00;;;;;;;;;20.33;19.33;;;;;-146.44;100.00;58906.56;5075298;27;45398;-66
2022/07/20 09:28:54;;;;;;;;;23.67;22.33;;;;;-146.44;100.00;58906.56;5075108;27;45451;-65
2022/07/20 09:31:22;;;;;;;;;18.00;18.00;;;;;-146.44;100.00;58906.56;5074809;28;45455;-65
2022/07/20 09:33:50;;;;;;;;;17.75;16.75;;;;;-146.44;100.00;58906.56;5074652;27;45426;-66
2022/07/20 09:36:18;;;;;;;;;17.75;17.75;;;;;-146.44;100.00;58906.56;5074987;27;45375;-66
2022/07/20 09:38:44;;;;;;;;;15.50;14.00;;;;;-146.44;100.00;58906.56;5074876;27;45476;-66
2022/07/20 09:41:27;;;;;;;;;14.50;14.50;;;;;-146.44;100.00;58906.56;5074785;27;45478;-66
2022/07/20 09:43:53;;;;;;;;;18.25;16.50;;;;;-146.44;100.00;58906.56;5074801;28;45547;-66
2022/07/20 09:46:22;;;;;;;;;14.25;14.25;;;;;-146.44;100.00;58906.56;5074632;27;45501;-65
2022/07/20 09:48:56;;;;;;;;;12.50;12.50;;;;;-146.44;100.00;58906.56;5073658;28;45484;-66
2022/07/20 09:51:31;;;;;;;;;12.50;12.50;;;;;-146.44;100.00;58906.56;5074722;28;45358;-66
2022/07/20 09:53:58;;;;;;;;;14.25;13.25;;;;;-146.44;100.00;58906.56;5073375;28;47071;-66
2022/07/20 09:56:25;;;;;;;;;15.25;14.75;;;;;-146.44;100.00;58906.56;5074810;27;45375;-66
2022/07/20 09:58:54;;;;;;;;;16.00;15.25;;;;;-146.44;100.00;58906.56;5074902;27;45419;-66
2022/07/20 10:01:22;;;;;;;;;16.50;14.75;;;;;-146.44;100.00;58906.56;5074804;28;45591;-66
2022/07/20 10:03:50;;;;;;;;;17.00;17.00;;;;;-146.44;100.00;58906.56;5074616;28;45544;-66
2022/07/20 10:06:17;;;;;;;;;13.75;13.75;;;;;-146.44;100.00;58906.56;5074918;27;45454;-66
2022/07/20 10:08:43;;;;;;;;;15.75;15.50;;;;;-146.44;100.00;58906.56;5078102;28;45452;-66
2022/07/20 10:11:08;;;;;;;;;19.00;19.00;;;;;-146.44;100.00;58906.56;5078123;27;45527;-66
2022/07/20 10:13:35;;;;;;;;;39.33;33.33;;;;;-146.44;100.00;58906.56;5077892;27;45464;-66
2022/07/20 10:16:10;;;;;;;;;18.75;16.00;;;;;-146.44;100.00;58906.56;5077582;27;45467;-66
2022/07/20 10:18:36;;;;;;;;;13.00;12.50;;;;;-146.44;100.00;58906.56;5077989;27;45443;-66
2022/07/20 10:21:30;;;;;;;;;14.75;14.75;;;;;-146.44;100.00;58906.56;5077810;27;45550;-66
2022/07/20 10:24:17;;;;;;;;;13.50;13.50;;;;;-146.44;100.00;58906.56;5077329;27;45453;-66
2022/07/20 10:26:43;;;;;;;;;13.50;13.50;;;;;-146.44;100.00;58906.56;5077456;27;45478;-66
2022/07/20 10:29:09;;;;;;;;;11.00;11.00;;;;;-146.44;100.00;58906.56;5076445;28;45417;-66
2022/07/20 10:31:52;;;;;;;;;10.50;10.50;;;;;-146.44;100.00;58906.56;5077785;27;45512;-65
2022/07/20 10:34:44;;;;;;;;;8.25;8.25;;;;;-146.44;100.00;58906.56;5077569;28;46192;-65
2022/07/20 10:37:24;;;;;;;;;10.25;10.25;;;;;-146.44;100.00;58906.56;5077298;27;45532;-66
2022/07/20 10:40:11;;;;;;;;;11.50;9.25;;;;;-146.44;100.00;58906.56;5077557;27;45362;-66
2022/07/20 10:42:42;;;;;;;;;11.25;11.25;;;;;-146.44;100.00;58906.56;5077326;28;45430;-64
2022/07/20 10:45:13;;;;;;;;;11.25;11.25;;;;;-146.44;100.00;58906.56;5076853;27;45413;-65
2022/07/20 10:47:42;;;;;;;;;13.75;12.25;;;;;-146.44;100.00;58906.56;5077113;28;45570;-66
2022/07/20 10:50:08;;;;;;;;;14.00;11.75;;;;;-146.44;100.00;58906.56;5077196;27;45500;-66
2022/07/20 10:52:34;;;;;;;;;12.75;12.75;;;;;-146.44;100.00;58906.56;5077106;27;45584;-66
2022/07/20 10:55:01;;;;;;;;;14.75;13.50;;;;;-146.44;100.00;58906.56;5076803;27;45778;-65